sensor_id;sensor_type;location;lat;lon;timestamp;temperature;humidity
4697;DHT22;2362;50.780;0.292;2023-04-15T00:01:32;7.80;99.90
4697;DHT22;2362;50.780;0.292;2023-04-15T00:04:01;7.80;99.90
4697;DHT22;2362;50.780;0.292;2023-04-15T00:06:27;7.80;99.90
4697;DHT22;2362;50.780;0.292;2023-04-15T00:08:52;7.80;99.90
4697;DHT22;2362;50.780;0.292;2023-04-15T00:11:19;7.80;99.90
4697;DHT22;2362;50.780;0.292;2023-04-15T00:13:45;7.80;99.90
4697;DHT22;2362;50.780;0.292;2023-04-15T00:16:11;7.80;99.90
4697;DHT22;2362;50.780;0.292;2023-04-15T00:18:36;7.80;99.90
4697;DHT22;2362;50.780;0.292;2023-04-15T00:21:03;7.80;99.90
4697;DHT22;2362;50.780;0.292;2023-04-15T00:23:29;7.80;99.90
4697;DHT22;2362;50.780;0.292;2023-04-15T00:25:55;7.90;99.90
4697;DHT22;2362;50.780;0.292;2023-04-15T00:28:21;7.80;99.90
4697;DHT22;2362;50.780;0.292;2023-04-15T00:30:46;7.90;99.90
4697;DHT22;2362;50.780;0.292;2023-04-15T00:33:13;7.80;99.90
4697;DHT22;2362;50.780;0.292;2023-04-15T00:35:39;7.90;99.90
4697;DHT22;2362;50.780;0.292;2023-04-15T00:38:05;7.80;99.90
4697;DHT22;2362;50.780;0.292;2023-04-15T00:40:34;7.80;99.90
4697;DHT22;2362;50.780;0.292;2023-04-15T00:43:00;7.80;99.90
4697;DHT22;2362;50.780;0.292;2023-04-15T00:45:26;7.80;99.90
4697;DHT22;2362;50.780;0.292;2023-04-15T00:48:20;7.80;99.90
4697;DHT22;2362;50.780;0.292;2023-04-15T00:51:36;7.70;99.90
4697;DHT22;2362;50.780;0.292;2023-04-15T00:54:52;7.60;99.90
4697;DHT22;2362;50.780;0.292;2023-04-15T00:57:19;7.50;99.90
4697;DHT22;2362;50.780;0.292;2023-04-15T00:59:46;7.50;99.90
4697;DHT22;2362;50.780;0.292;2023-04-15T01:02:11;7.50;99.90
4697;DHT22;2362;50.780;0.292;2023-04-15T01:04:37;7.40;99.90
4697;DHT22;2362;50.780;0.292;2023-04-15T01:07:03;7.40;99.90
4697;DHT22;2362;50.780;0.292;2023-04-15T01:09:29;7.30;99.90
4697;DHT22;2362;50.780;0.292;2023-04-15T01:11:55;7.30;99.90
4697;DHT22;2362;50.780;0.292;2023-04-15T01:14:21;7.30;99.90
4697;DHT22;2362;50.780;0.292;2023-04-15T01:16:47;7.30;99.90
4697;DHT22;2362;50.780;0.292;2023-04-15T01:19:13;7.30;99.90
4697;DHT22;2362;50.780;0.292;2023-04-15T01:21:41;7.30;99.90
4697;DHT22;2362;50.780;0.292;2023-04-15T01:24:08;7.30;99.90
4697;DHT22;2362;50.780;0.292;2023-04-15T01:26:38;7.30;99.90
4697;DHT22;2362;50.780;0.292;2023-04-15T01:29:05;7.40;99.90
4697;DHT22;2362;50.780;0.292;2023-04-15T01:31:31;7.30;99.90
4697;DHT22;2362;50.780;0.292;2023-04-15T01:33:57;7.40;99.90
4697;DHT22;2362;50.780;0.292;2023-04-15T01:36:23;7.40;99.90
4697;DHT22;2362;50.780;0.292;2023-04-15T01:38:48;7.40;99.90
4697;DHT22;2362;50.780;0.292;2023-04-15T01:41:15;7.30;99.90
4697;DHT22;2362;50.780;0.292;2023-04-15T01:43:40;7.30;99.90
4697;DHT22;2362;50.780;0.292;2023-04-15T01:46:06;7.30;99.90
4697;DHT22;2362;50.780;0.292;2023-04-15T01:48:33;7.30;99.90
4697;DHT22;2362;50.780;0.292;2023-04-15T01:51:00;7.30;99.90
4697;DHT22;2362;50.780;0.292;2023-04-15T01:53:26;7.30;99.90
4697;DHT22;2362;50.780;0.292;2023-04-15T01:55:52;7.20;99.90
4697;DHT22;2362;50.780;0.292;2023-04-15T01:58:18;7.20;99.90
4697;DHT22;2362;50.780;0.292;2023-04-15T02:00:47;7.20;99.90
4697;DHT22;2362;50.780;0.292;2023-04-15T02:03:13;7.10;99.90
4697;DHT22;2362;50.780;0.292;2023-04-15T02:05:38;7.00;99.90
4697;DHT22;2362;50.780;0.292;2023-04-15T02:08:04;7.00;99.90
4697;DHT22;2362;50.780;0.292;2023-04-15T02:10:30;7.00;99.90
4697;DHT22;2362;50.780;0.292;2023-04-15T02:12:56;7.00;99.90
4697;DHT22;2362;50.780;0.292;2023-04-15T02:15:21;7.00;99.90
4697;DHT22;2362;50.780;0.292;2023-04-15T02:17:47;7.00;99.90
4697;DHT22;2362;50.780;0.292;2023-04-15T02:20:15;7.00;99.90
4697;DHT22;2362;50.780;0.292;2023-04-15T02:22:42;7.00;99.90
4697;DHT22;2362;50.780;0.292;2023-04-15T02:25:08;7.00;99.90
4697;DHT22;2362;50.780;0.292;2023-04-15T02:27:35;7.00;99.90
4697;DHT22;2362;50.780;0.292;2023-04-15T02:30:01;7.00;99.90
4697;DHT22;2362;50.780;0.292;2023-04-15T02:32:27;7.00;99.90
4697;DHT22;2362;50.780;0.292;2023-04-15T02:34:53;7.00;99.90
4697;DHT22;2362;50.780;0.292;2023-04-15T02:37:19;7.00;99.90
4697;DHT22;2362;50.780;0.292;2023-04-15T02:39:45;7.00;99.90
4697;DHT22;2362;50.780;0.292;2023-04-15T02:42:11;7.10;99.90
4697;DHT22;2362;50.780;0.292;2023-04-15T02:44:37;7.00;99.90
4697;DHT22;2362;50.780;0.292;2023-04-15T02:47:03;7.10;99.90
4697;DHT22;2362;50.780;0.292;2023-04-15T02:49:30;7.00;99.90
4697;DHT22;2362;50.780;0.292;2023-04-15T02:51:56;7.10;99.90
4697;DHT22;2362;50.780;0.292;2023-04-15T02:54:23;7.10;99.90
4697;DHT22;2362;50.780;0.292;2023-04-15T02:56:49;7.10;99.90
4697;DHT22;2362;50.780;0.292;2023-04-15T02:59:15;7.10;99.90
4697;DHT22;2362;50.780;0.292;2023-04-15T03:01:41;7.00;99.90
4697;DHT22;2362;50.780;0.292;2023-04-15T03:04:07;7.00;99.90
4697;DHT22;2362;50.780;0.292;2023-04-15T03:06:33;7.00;99.90
4697;DHT22;2362;50.780;0.292;2023-04-15T03:08:59;7.10;99.90
4697;DHT22;2362;50.780;0.292;2023-04-15T03:11:27;7.10;99.90
4697;DHT22;2362;50.780;0.292;2023-04-15T03:13:53;7.10;99.90
4697;DHT22;2362;50.780;0.292;2023-04-15T03:16:19;7.10;99.90
4697;DHT22;2362;50.780;0.292;2023-04-15T03:18:45;7.10;99.90
4697;DHT22;2362;50.780;0.292;2023-04-15T03:21:11;7.10;99.90
4697;DHT22;2362;50.780;0.292;2023-04-15T03:23:36;7.10;99.90
4697;DHT22;2362;50.780;0.292;2023-04-15T03:26:03;7.10;99.90
4697;DHT22;2362;50.780;0.292;2023-04-15T03:28:28;7.00;99.90
4697;DHT22;2362;50.780;0.292;2023-04-15T03:30:54;6.90;99.90
4697;DHT22;2362;50.780;0.292;2023-04-15T03:33:20;6.90;99.90
4697;DHT22;2362;50.780;0.292;2023-04-15T03:35:50;6.80;99.90
4697;DHT22;2362;50.780;0.292;2023-04-15T03:38:16;6.80;99.90
4697;DHT22;2362;50.780;0.292;2023-04-15T03:40:42;6.70;99.90
4697;DHT22;2362;50.780;0.292;2023-04-15T03:43:08;6.70;99.90
4697;DHT22;2362;50.780;0.292;2023-04-15T03:45:34;6.70;99.90
4697;DHT22;2362;50.780;0.292;2023-04-15T03:47:59;6.70;99.90
4697;DHT22;2362;50.780;0.292;2023-04-15T03:50:25;6.80;99.90
4697;DHT22;2362;50.780;0.292;2023-04-15T03:52:51;6.80;99.90
4697;DHT22;2362;50.780;0.292;2023-04-15T03:55:16;6.80;99.90
4697;DHT22;2362;50.780;0.292;2023-04-15T03:57:42;6.80;99.90
4697;DHT22;2362;50.780;0.292;2023-04-15T04:00:08;6.90;99.90
4697;DHT22;2362;50.780;0.292;2023-04-15T04:02:35;7.00;99.90
4697;DHT22;2362;50.780;0.292;2023-04-15T04:05:00;6.90;99.90
4697;DHT22;2362;50.780;0.292;2023-04-15T04:07:52;6.90;99.90
4697;DHT22;2362;50.780;0.292;2023-04-15T04:10:18;6.80;99.90
4697;DHT22;2362;50.780;0.292;2023-04-15T04:12:44;6.90;99.90
4697;DHT22;2362;50.780;0.292;2023-04-15T04:15:10;6.90;99.90
4697;DHT22;2362;50.780;0.292;2023-04-15T04:17:35;6.90;99.90
4697;DHT22;2362;50.780;0.292;2023-04-15T04:20:01;6.90;99.90
4697;DHT22;2362;50.780;0.292;2023-04-15T04:22:28;7.00;99.90
4697;DHT22;2362;50.780;0.292;2023-04-15T04:24:54;7.00;99.90
4697;DHT22;2362;50.780;0.292;2023-04-15T04:27:20;7.10;99.90
4697;DHT22;2362;50.780;0.292;2023-04-15T04:29:46;7.10;99.90
4697;DHT22;2362;50.780;0.292;2023-04-15T04:32:12;7.10;99.90
4697;DHT22;2362;50.780;0.292;2023-04-15T04:34:38;7.10;99.90
4697;DHT22;2362;50.780;0.292;2023-04-15T04:37:03;7.10;99.90
4697;DHT22;2362;50.780;0.292;2023-04-15T04:39:29;7.10;99.90
4697;DHT22;2362;50.780;0.292;2023-04-15T04:41:54;7.20;99.90
4697;DHT22;2362;50.780;0.292;2023-04-15T04:44:20;7.10;99.90
4697;DHT22;2362;50.780;0.292;2023-04-15T04:46:46;7.10;99.90
4697;DHT22;2362;50.780;0.292;2023-04-15T04:49:12;7.20;99.90
4697;DHT22;2362;50.780;0.292;2023-04-15T04:51:37;7.20;99.90
4697;DHT22;2362;50.780;0.292;2023-04-15T04:54:29;7.10;99.90
4697;DHT22;2362;50.780;0.292;2023-04-15T04:57:21;7.20;99.90
4697;DHT22;2362;50.780;0.292;2023-04-15T04:59:47;7.20;99.90
4697;DHT22;2362;50.780;0.292;2023-04-15T05:02:12;7.20;99.90
4697;DHT22;2362;50.780;0.292;2023-04-15T05:04:38;7.20;99.90
4697;DHT22;2362;50.780;0.292;2023-04-15T05:07:03;7.10;99.90
4697;DHT22;2362;50.780;0.292;2023-04-15T05:09:29;7.20;99.90
4697;DHT22;2362;50.780;0.292;2023-04-15T05:11:56;7.20;99.90
4697;DHT22;2362;50.780;0.292;2023-04-15T05:14:22;7.20;99.90
4697;DHT22;2362;50.780;0.292;2023-04-15T05:16:48;7.20;99.90
4697;DHT22;2362;50.780;0.292;2023-04-15T05:19:13;7.20;99.90
4697;DHT22;2362;50.780;0.292;2023-04-15T05:21:39;7.20;99.90
4697;DHT22;2362;50.780;0.292;2023-04-15T05:24:05;7.20;99.90
4697;DHT22;2362;50.780;0.292;2023-04-15T05:26:31;7.20;99.90
4697;DHT22;2362;50.780;0.292;2023-04-15T05:28:57;7.20;99.90
4697;DHT22;2362;50.780;0.292;2023-04-15T05:31:22;7.20;99.90
4697;DHT22;2362;50.780;0.292;2023-04-15T05:33:48;7.30;99.90
4697;DHT22;2362;50.780;0.292;2023-04-15T05:36:14;7.30;99.90
4697;DHT22;2362;50.780;0.292;2023-04-15T05:38:40;7.30;99.90
4697;DHT22;2362;50.780;0.292;2023-04-15T05:41:31;7.30;99.90
4697;DHT22;2362;50.780;0.292;2023-04-15T05:43:57;7.30;99.90
4697;DHT22;2362;50.780;0.292;2023-04-15T05:46:22;7.30;99.90
4697;DHT22;2362;50.780;0.292;2023-04-15T05:48:48;7.30;99.90
4697;DHT22;2362;50.780;0.292;2023-04-15T05:51:14;7.30;99.90
4697;DHT22;2362;50.780;0.292;2023-04-15T05:53:39;7.30;99.90
4697;DHT22;2362;50.780;0.292;2023-04-15T05:56:06;7.30;99.90
4697;DHT22;2362;50.780;0.292;2023-04-15T05:58:32;7.30;99.90
4697;DHT22;2362;50.780;0.292;2023-04-15T06:00:58;7.30;99.90
4697;DHT22;2362;50.780;0.292;2023-04-15T06:03:23;7.40;99.90
4697;DHT22;2362;50.780;0.292;2023-04-15T06:05:49;7.40;99.90
4697;DHT22;2362;50.780;0.292;2023-04-15T06:08:15;7.40;99.90
4697;DHT22;2362;50.780;0.292;2023-04-15T06:10:44;7.40;99.90
4697;DHT22;2362;50.780;0.292;2023-04-15T06:13:10;7.40;99.90
4697;DHT22;2362;50.780;0.292;2023-04-15T06:15:36;7.40;99.90
4697;DHT22;2362;50.780;0.292;2023-04-15T06:18:02;7.40;99.90
4697;DHT22;2362;50.780;0.292;2023-04-15T06:20:27;7.40;99.90
4697;DHT22;2362;50.780;0.292;2023-04-15T06:22:53;7.40;99.90
4697;DHT22;2362;50.780;0.292;2023-04-15T06:25:19;7.40;99.90
4697;DHT22;2362;50.780;0.292;2023-04-15T06:27:45;7.40;99.90
4697;DHT22;2362;50.780;0.292;2023-04-15T06:30:10;7.60;99.90
4697;DHT22;2362;50.780;0.292;2023-04-15T06:32:36;7.80;99.90
4697;DHT22;2362;50.780;0.292;2023-04-15T06:35:02;8.00;99.90
4697;DHT22;2362;50.780;0.292;2023-04-15T06:37:28;8.10;99.90
4697;DHT22;2362;50.780;0.292;2023-04-15T06:39:54;8.30;99.90
4697;DHT22;2362;50.780;0.292;2023-04-15T06:42:20;8.40;99.90
4697;DHT22;2362;50.780;0.292;2023-04-15T06:44:46;8.40;99.90
4697;DHT22;2362;50.780;0.292;2023-04-15T06:47:11;8.70;99.90
4697;DHT22;2362;50.780;0.292;2023-04-15T06:49:39;8.70;99.90
4697;DHT22;2362;50.780;0.292;2023-04-15T06:52:05;8.40;99.90
4697;DHT22;2362;50.780;0.292;2023-04-15T06:54:30;8.20;99.90
4697;DHT22;2362;50.780;0.292;2023-04-15T06:56:59;8.30;99.90
4697;DHT22;2362;50.780;0.292;2023-04-15T06:59:25;8.20;99.90
4697;DHT22;2362;50.780;0.292;2023-04-15T07:01:51;8.20;99.90
4697;DHT22;2362;50.780;0.292;2023-04-15T07:04:17;8.10;99.90
4697;DHT22;2362;50.780;0.292;2023-04-15T07:06:43;8.10;99.90
4697;DHT22;2362;50.780;0.292;2023-04-15T07:09:09;8.10;99.90
4697;DHT22;2362;50.780;0.292;2023-04-15T07:11:35;8.00;99.90
4697;DHT22;2362;50.780;0.292;2023-04-15T07:14:01;8.10;99.90
4697;DHT22;2362;50.780;0.292;2023-04-15T07:16:26;8.10;99.90
4697;DHT22;2362;50.780;0.292;2023-04-15T07:18:52;8.10;99.90
4697;DHT22;2362;50.780;0.292;2023-04-15T07:21:18;8.20;99.90
4697;DHT22;2362;50.780;0.292;2023-04-15T07:23:44;8.20;99.90
4697;DHT22;2362;50.780;0.292;2023-04-15T07:26:09;8.30;99.90
4697;DHT22;2362;50.780;0.292;2023-04-15T07:29:00;8.50;99.90
4697;DHT22;2362;50.780;0.292;2023-04-15T07:31:51;8.60;99.90
4697;DHT22;2362;50.780;0.292;2023-04-15T07:34:42;8.60;99.90
4697;DHT22;2362;50.780;0.292;2023-04-15T07:37:09;8.50;99.90
4697;DHT22;2362;50.780;0.292;2023-04-15T07:39:35;8.40;99.90
4697;DHT22;2362;50.780;0.292;2023-04-15T07:42:01;8.40;99.90
4697;DHT22;2362;50.780;0.292;2023-04-15T07:44:28;8.40;99.90
4697;DHT22;2362;50.780;0.292;2023-04-15T07:46:55;8.30;99.90
4697;DHT22;2362;50.780;0.292;2023-04-15T07:49:20;8.40;99.90
4697;DHT22;2362;50.780;0.292;2023-04-15T07:51:46;8.30;99.90
4697;DHT22;2362;50.780;0.292;2023-04-15T07:54:16;8.30;99.90
4697;DHT22;2362;50.780;0.292;2023-04-15T07:56:41;8.40;99.90
4697;DHT22;2362;50.780;0.292;2023-04-15T07:59:08;8.40;99.90
4697;DHT22;2362;50.780;0.292;2023-04-15T08:01:34;8.40;99.90
4697;DHT22;2362;50.780;0.292;2023-04-15T08:04:00;8.50;99.90
4697;DHT22;2362;50.780;0.292;2023-04-15T08:06:25;8.70;99.90
4697;DHT22;2362;50.780;0.292;2023-04-15T08:09:17;8.60;99.90
4697;DHT22;2362;50.780;0.292;2023-04-15T08:12:08;8.70;99.90
4697;DHT22;2362;50.780;0.292;2023-04-15T08:15:02;8.70;99.90
4697;DHT22;2362;50.780;0.292;2023-04-15T08:17:28;8.80;99.90
4697;DHT22;2362;50.780;0.292;2023-04-15T08:19:54;8.80;99.90
4697;DHT22;2362;50.780;0.292;2023-04-15T08:22:20;8.90;99.90
4697;DHT22;2362;50.780;0.292;2023-04-15T08:24:46;9.00;99.90
4697;DHT22;2362;50.780;0.292;2023-04-15T08:27:11;8.80;99.90
4697;DHT22;2362;50.780;0.292;2023-04-15T08:29:38;8.80;99.90
4697;DHT22;2362;50.780;0.292;2023-04-15T08:32:04;9.00;99.90
4697;DHT22;2362;50.780;0.292;2023-04-15T08:34:29;9.10;99.90
4697;DHT22;2362;50.780;0.292;2023-04-15T08:36:55;9.20;99.90
4697;DHT22;2362;50.780;0.292;2023-04-15T08:39:21;9.30;99.90
4697;DHT22;2362;50.780;0.292;2023-04-15T08:42:01;9.40;99.90
4697;DHT22;2362;50.780;0.292;2023-04-15T08:44:29;9.70;99.90
4697;DHT22;2362;50.780;0.292;2023-04-15T08:46:56;10.00;99.90
4697;DHT22;2362;50.780;0.292;2023-04-15T08:49:26;10.40;99.90
4697;DHT22;2362;50.780;0.292;2023-04-15T08:51:54;10.50;99.90
4697;DHT22;2362;50.780;0.292;2023-04-15T08:54:21;10.40;99.90
4697;DHT22;2362;50.780;0.292;2023-04-15T08:56:47;10.40;99.90
4697;DHT22;2362;50.780;0.292;2023-04-15T08:59:13;10.20;99.90
4697;DHT22;2362;50.780;0.292;2023-04-15T09:02:06;10.10;99.90
4697;DHT22;2362;50.780;0.292;2023-04-15T09:04:58;10.30;99.90
4697;DHT22;2362;50.780;0.292;2023-04-15T09:07:50;10.50;99.90
4697;DHT22;2362;50.780;0.292;2023-04-15T09:10:41;10.60;99.90
4697;DHT22;2362;50.780;0.292;2023-04-15T09:13:32;10.60;99.90
4697;DHT22;2362;50.780;0.292;2023-04-15T09:16:24;10.40;99.90
4697;DHT22;2362;50.780;0.292;2023-04-15T09:18:50;10.40;99.90
4697;DHT22;2362;50.780;0.292;2023-04-15T09:21:16;10.60;99.90
4697;DHT22;2362;50.780;0.292;2023-04-15T09:23:57;10.60;99.90
4697;DHT22;2362;50.780;0.292;2023-04-15T09:26:33;10.70;99.90
4697;DHT22;2362;50.780;0.292;2023-04-15T09:29:07;10.60;99.90
4697;DHT22;2362;50.780;0.292;2023-04-15T09:31:34;10.80;99.90
4697;DHT22;2362;50.780;0.292;2023-04-15T09:34:01;10.90;99.90
4697;DHT22;2362;50.780;0.292;2023-04-15T09:36:27;10.90;99.90
4697;DHT22;2362;50.780;0.292;2023-04-15T09:38:57;11.20;99.90
4697;DHT22;2362;50.780;0.292;2023-04-15T09:41:26;11.20;99.90
4697;DHT22;2362;50.780;0.292;2023-04-15T09:43:53;11.10;99.90
4697;DHT22;2362;50.780;0.292;2023-04-15T09:46:18;11.10;99.90
4697;DHT22;2362;50.780;0.292;2023-04-15T09:48:44;11.20;99.90
4697;DHT22;2362;50.780;0.292;2023-04-15T09:51:35;11.30;99.90
4697;DHT22;2362;50.780;0.292;2023-04-15T09:54:05;11.40;99.90
4697;DHT22;2362;50.780;0.292;2023-04-15T09:56:35;11.30;99.90
4697;DHT22;2362;50.780;0.292;2023-04-15T09:59:04;11.40;99.90
4697;DHT22;2362;50.780;0.292;2023-04-15T10:01:30;11.40;99.90
4697;DHT22;2362;50.780;0.292;2023-04-15T10:03:57;11.60;99.90
4697;DHT22;2362;50.780;0.292;2023-04-15T10:06:25;11.80;99.90
4697;DHT22;2362;50.780;0.292;2023-04-15T10:08:51;11.80;99.90
4697;DHT22;2362;50.780;0.292;2023-04-15T10:11:18;11.60;99.90
4697;DHT22;2362;50.780;0.292;2023-04-15T10:13:46;11.60;99.90
4697;DHT22;2362;50.780;0.292;2023-04-15T10:16:14;11.60;99.90
4697;DHT22;2362;50.780;0.292;2023-04-15T10:18:45;11.70;99.90
4697;DHT22;2362;50.780;0.292;2023-04-15T10:21:12;11.60;99.90
4697;DHT22;2362;50.780;0.292;2023-04-15T10:23:46;11.70;99.90
4697;DHT22;2362;50.780;0.292;2023-04-15T10:26:13;11.60;99.90
4697;DHT22;2362;50.780;0.292;2023-04-15T10:28:43;11.60;99.90
4697;DHT22;2362;50.780;0.292;2023-04-15T10:31:13;11.60;99.90
4697;DHT22;2362;50.780;0.292;2023-04-15T10:33:43;11.60;99.90
4697;DHT22;2362;50.780;0.292;2023-04-15T10:36:10;11.50;99.90
4697;DHT22;2362;50.780;0.292;2023-04-15T10:38:44;11.70;99.90
4697;DHT22;2362;50.780;0.292;2023-04-15T10:41:21;11.80;99.90
4697;DHT22;2362;50.780;0.292;2023-04-15T10:43:54;11.80;99.90
4697;DHT22;2362;50.780;0.292;2023-04-15T10:46:36;12.00;99.90
4697;DHT22;2362;50.780;0.292;2023-04-15T10:49:14;12.10;99.90
4697;DHT22;2362;50.780;0.292;2023-04-15T10:51:45;12.20;99.90
4697;DHT22;2362;50.780;0.292;2023-04-15T10:54:16;12.20;99.90
4697;DHT22;2362;50.780;0.292;2023-04-15T10:57:13;12.20;99.90
4697;DHT22;2362;50.780;0.292;2023-04-15T11:03:06;12.20;99.90
4697;DHT22;2362;50.780;0.292;2023-04-15T11:08:08;12.30;99.90
4697;DHT22;2362;50.780;0.292;2023-04-15T11:13:02;12.70;99.90
4697;DHT22;2362;50.780;0.292;2023-04-15T11:15:37;12.80;99.90
4697;DHT22;2362;50.780;0.292;2023-04-15T11:18:24;12.80;99.90
4697;DHT22;2362;50.780;0.292;2023-04-15T11:20:53;12.80;99.90
4697;DHT22;2362;50.780;0.292;2023-04-15T11:23:28;12.80;99.90
4697;DHT22;2362;50.780;0.292;2023-04-15T11:25:55;12.90;99.90
4697;DHT22;2362;50.780;0.292;2023-04-15T11:28:27;13.00;99.90
4697;DHT22;2362;50.780;0.292;2023-04-15T11:30:54;12.90;99.90
4697;DHT22;2362;50.780;0.292;2023-04-15T11:33:21;13.00;99.90
4697;DHT22;2362;50.780;0.292;2023-04-15T11:35:49;13.00;99.90
4697;DHT22;2362;50.780;0.292;2023-04-15T11:38:15;13.10;99.90
4697;DHT22;2362;50.780;0.292;2023-04-15T11:40:42;13.40;99.90
4697;DHT22;2362;50.780;0.292;2023-04-15T11:43:18;13.30;99.90
4697;DHT22;2362;50.780;0.292;2023-04-15T11:46:03;13.30;99.90
4697;DHT22;2362;50.780;0.292;2023-04-15T11:48:35;13.10;99.90
4697;DHT22;2362;50.780;0.292;2023-04-15T11:51:01;13.10;99.90
4697;DHT22;2362;50.780;0.292;2023-04-15T11:53:46;13.10;99.90
4697;DHT22;2362;50.780;0.292;2023-04-15T11:56:23;13.20;99.90
4697;DHT22;2362;50.780;0.292;2023-04-15T11:58:55;13.30;99.90
4697;DHT22;2362;50.780;0.292;2023-04-15T12:01:38;13.30;99.90
4697;DHT22;2362;50.780;0.292;2023-04-15T12:04:15;13.20;99.90
4697;DHT22;2362;50.780;0.292;2023-04-15T12:06:45;13.30;99.90
4697;DHT22;2362;50.780;0.292;2023-04-15T12:09:14;13.30;99.90
4697;DHT22;2362;50.780;0.292;2023-04-15T12:17:00;13.60;99.90
4697;DHT22;2362;50.780;0.292;2023-04-15T12:19:40;13.80;99.90
4697;DHT22;2362;50.780;0.292;2023-04-15T12:22:12;13.90;99.90
4697;DHT22;2362;50.780;0.292;2023-04-15T12:24:41;13.60;99.90
4697;DHT22;2362;50.780;0.292;2023-04-15T12:27:10;13.40;99.90
4697;DHT22;2362;50.780;0.292;2023-04-15T12:30:05;13.40;99.90
4697;DHT22;2362;50.780;0.292;2023-04-15T12:32:57;13.50;99.90
4697;DHT22;2362;50.780;0.292;2023-04-15T12:35:27;13.80;99.90
4697;DHT22;2362;50.780;0.292;2023-04-15T12:37:53;14.00;99.90
4697;DHT22;2362;50.780;0.292;2023-04-15T12:40:19;13.70;99.90
4697;DHT22;2362;50.780;0.292;2023-04-15T12:42:45;13.80;99.90
4697;DHT22;2362;50.780;0.292;2023-04-15T12:45:10;13.70;99.90
4697;DHT22;2362;50.780;0.292;2023-04-15T12:47:36;13.60;99.90
4697;DHT22;2362;50.780;0.292;2023-04-15T12:50:02;13.60;99.90
4697;DHT22;2362;50.780;0.292;2023-04-15T12:52:27;13.50;99.90
4697;DHT22;2362;50.780;0.292;2023-04-15T12:54:53;13.70;99.90
4697;DHT22;2362;50.780;0.292;2023-04-15T12:57:19;13.80;99.90
4697;DHT22;2362;50.780;0.292;2023-04-15T12:59:44;14.00;99.90
4697;DHT22;2362;50.780;0.292;2023-04-15T13:02:10;14.10;99.90
4697;DHT22;2362;50.780;0.292;2023-04-15T13:04:35;14.00;99.90
4697;DHT22;2362;50.780;0.292;2023-04-15T13:07:01;14.00;99.90
4697;DHT22;2362;50.780;0.292;2023-04-15T13:09:27;14.20;99.90
4697;DHT22;2362;50.780;0.292;2023-04-15T13:11:53;14.40;99.90
4697;DHT22;2362;50.780;0.292;2023-04-15T13:14:18;14.50;99.90
4697;DHT22;2362;50.780;0.292;2023-04-15T13:16:44;14.30;99.90
4697;DHT22;2362;50.780;0.292;2023-04-15T13:19:10;14.10;99.90
4697;DHT22;2362;50.780;0.292;2023-04-15T13:21:35;14.10;99.90
4697;DHT22;2362;50.780;0.292;2023-04-15T13:24:01;14.20;99.90
4697;DHT22;2362;50.780;0.292;2023-04-15T13:26:27;14.60;99.90
4697;DHT22;2362;50.780;0.292;2023-04-15T13:28:52;14.80;99.90
4697;DHT22;2362;50.780;0.292;2023-04-15T13:31:18;14.80;99.90
4697;DHT22;2362;50.780;0.292;2023-04-15T13:33:44;14.40;99.90
4697;DHT22;2362;50.780;0.292;2023-04-15T13:36:09;14.10;99.90
4697;DHT22;2362;50.780;0.292;2023-04-15T13:38:35;13.90;99.90
4697;DHT22;2362;50.780;0.292;2023-04-15T13:41:01;13.70;99.90
4697;DHT22;2362;50.780;0.292;2023-04-15T13:43:26;13.60;99.90
4697;DHT22;2362;50.780;0.292;2023-04-15T13:45:52;13.70;99.90
4697;DHT22;2362;50.780;0.292;2023-04-15T13:48:18;13.90;99.90
4697;DHT22;2362;50.780;0.292;2023-04-15T13:50:43;14.10;99.90
4697;DHT22;2362;50.780;0.292;2023-04-15T13:53:11;14.40;99.90
4697;DHT22;2362;50.780;0.292;2023-04-15T13:55:36;14.50;99.90
4697;DHT22;2362;50.780;0.292;2023-04-15T13:58:09;14.40;99.90
4697;DHT22;2362;50.780;0.292;2023-04-15T14:00:35;14.30;99.90
4697;DHT22;2362;50.780;0.292;2023-04-15T14:03:01;14.30;99.90
4697;DHT22;2362;50.780;0.292;2023-04-15T14:05:26;14.40;99.90
4697;DHT22;2362;50.780;0.292;2023-04-15T14:07:52;14.50;99.90
4697;DHT22;2362;50.780;0.292;2023-04-15T14:10:18;14.60;99.90
4697;DHT22;2362;50.780;0.292;2023-04-15T14:12:43;14.70;99.90
4697;DHT22;2362;50.780;0.292;2023-04-15T14:15:09;14.80;99.90
4697;DHT22;2362;50.780;0.292;2023-04-15T14:17:35;14.90;99.90
4697;DHT22;2362;50.780;0.292;2023-04-15T14:20:01;14.80;99.90
4697;DHT22;2362;50.780;0.292;2023-04-15T14:22:26;14.50;99.90
4697;DHT22;2362;50.780;0.292;2023-04-15T14:24:52;14.60;99.90
4697;DHT22;2362;50.780;0.292;2023-04-15T14:27:19;14.70;99.90
4697;DHT22;2362;50.780;0.292;2023-04-15T14:29:44;14.90;99.90
4697;DHT22;2362;50.780;0.292;2023-04-15T14:32:10;15.10;99.90
4697;DHT22;2362;50.780;0.292;2023-04-15T14:34:36;15.20;99.90
4697;DHT22;2362;50.780;0.292;2023-04-15T14:37:02;15.20;99.90
4697;DHT22;2362;50.780;0.292;2023-04-15T14:39:52;15.10;99.90
4697;DHT22;2362;50.780;0.292;2023-04-15T14:42:18;14.90;99.90
4697;DHT22;2362;50.780;0.292;2023-04-15T14:44:44;14.90;99.90
4697;DHT22;2362;50.780;0.292;2023-04-15T14:47:10;15.10;99.90
4697;DHT22;2362;50.780;0.292;2023-04-15T14:49:36;15.10;99.90
4697;DHT22;2362;50.780;0.292;2023-04-15T14:52:01;15.10;99.90
4697;DHT22;2362;50.780;0.292;2023-04-15T14:54:27;15.10;99.90
4697;DHT22;2362;50.780;0.292;2023-04-15T14:56:52;15.10;99.90
4697;DHT22;2362;50.780;0.292;2023-04-15T14:59:18;15.20;99.90
4697;DHT22;2362;50.780;0.292;2023-04-15T15:01:44;15.20;99.90
4697;DHT22;2362;50.780;0.292;2023-04-15T15:04:10;15.10;99.90
4697;DHT22;2362;50.780;0.292;2023-04-15T15:06:35;15.00;99.90
4697;DHT22;2362;50.780;0.292;2023-04-15T15:09:01;14.90;99.90
4697;DHT22;2362;50.780;0.292;2023-04-15T15:11:27;14.80;99.90
4697;DHT22;2362;50.780;0.292;2023-04-15T15:13:54;14.80;99.90
4697;DHT22;2362;50.780;0.292;2023-04-15T15:16:21;14.80;99.90
4697;DHT22;2362;50.780;0.292;2023-04-15T15:18:46;14.90;99.90
4697;DHT22;2362;50.780;0.292;2023-04-15T15:21:12;15.10;99.90
4697;DHT22;2362;50.780;0.292;2023-04-15T15:23:38;15.40;99.90
4697;DHT22;2362;50.780;0.292;2023-04-15T15:26:04;15.50;99.90
4697;DHT22;2362;50.780;0.292;2023-04-15T15:28:29;15.50;99.90
4697;DHT22;2362;50.780;0.292;2023-04-15T15:30:55;15.50;99.90
4697;DHT22;2362;50.780;0.292;2023-04-15T15:33:23;15.40;99.90
4697;DHT22;2362;50.780;0.292;2023-04-15T15:35:49;15.30;99.90
4697;DHT22;2362;50.780;0.292;2023-04-15T15:38:15;15.20;99.90
4697;DHT22;2362;50.780;0.292;2023-04-15T15:40:41;15.00;99.90
4697;DHT22;2362;50.780;0.292;2023-04-15T15:43:07;14.80;99.90
4697;DHT22;2362;50.780;0.292;2023-04-15T15:45:35;14.40;99.90
4697;DHT22;2362;50.780;0.292;2023-04-15T15:48:01;13.90;99.90
4697;DHT22;2362;50.780;0.292;2023-04-15T15:50:26;13.10;99.90
4697;DHT22;2362;50.780;0.292;2023-04-15T15:52:52;12.60;99.90
4697;DHT22;2362;50.780;0.292;2023-04-15T15:55:19;12.40;99.90
4697;DHT22;2362;50.780;0.292;2023-04-15T15:57:45;12.20;99.90
4697;DHT22;2362;50.780;0.292;2023-04-15T16:00:11;12.20;99.90
4697;DHT22;2362;50.780;0.292;2023-04-15T16:02:37;12.20;99.90
4697;DHT22;2362;50.780;0.292;2023-04-15T16:05:03;12.20;99.90
4697;DHT22;2362;50.780;0.292;2023-04-15T16:07:29;12.20;99.90
4697;DHT22;2362;50.780;0.292;2023-04-15T16:10:22;12.20;99.90
4697;DHT22;2362;50.780;0.292;2023-04-15T16:12:49;12.20;99.90
4697;DHT22;2362;50.780;0.292;2023-04-15T16:15:14;12.10;99.90
4697;DHT22;2362;50.780;0.292;2023-04-15T16:17:40;12.20;99.90
4697;DHT22;2362;50.780;0.292;2023-04-15T16:20:06;12.30;99.90
4697;DHT22;2362;50.780;0.292;2023-04-15T16:22:33;12.30;99.90
4697;DHT22;2362;50.780;0.292;2023-04-15T16:24:59;12.50;99.90
4697;DHT22;2362;50.780;0.292;2023-04-15T16:27:25;12.60;99.90
4697;DHT22;2362;50.780;0.292;2023-04-15T16:29:51;12.80;99.90
4697;DHT22;2362;50.780;0.292;2023-04-15T16:32:17;12.90;99.90